createdAt,value
2024-03-10T00:00:00.000Z,1.24
2024-03-10T00:15:00.000Z,1.27
2024-03-10T00:30:00.000Z,1.34
2024-03-10T00:45:00.000Z,1.07
2024-03-10T01:00:00.000Z,1.04
2024-03-10T01:15:00.000Z,1.02
2024-03-10T01:30:00.000Z,1.07
2024-03-10T01:45:00.000Z,1.12
2024-03-10T02:00:00.000Z,2.19
2024-03-10T02:15:00.000Z,3.01
2024-03-10T02:30:00.000Z,3.26
2024-03-10T02:45:00.000Z,4.95
2024-03-10T03:00:00.000Z,4.01
2024-03-10T03:15:00.000Z,4.24
2024-03-10T03:30:00.000Z,4.82
2024-03-10T03:45:00.000Z,4.53
2024-03-10T04:00:00.000Z,1.6
2024-03-10T04:15:00.000Z,3.32
2024-03-10T04:30:00.000Z,5.28
2024-03-10T04:45:00.000Z,2.98
2024-03-10T05:00:00.000Z,3.89
2024-03-10T05:15:00.000Z,8.48
2024-03-10T05:30:00.000Z,7.02
2024-03-10T05:45:00.000Z,14.4
2024-03-10T06:00:00.000Z,10.31
2024-03-10T06:15:00.000Z,6.95
2024-03-10T06:30:00.000Z,6.95
2024-03-10T06:45:00.000Z,6.61
2024-03-10T07:00:00.000Z,6.2
2024-03-10T07:15:00.000Z,6.05
2024-03-10T07:30:00.000Z,7.14
2024-03-10T07:45:00.000Z,8.19
2024-03-10T08:00:00.000Z,8.41
2024-03-10T08:15:00.000Z,8.56
2024-03-10T08:30:00.000Z,7.28
2024-03-10T08:45:00.000Z,6.99
2024-03-10T09:00:00.000Z,5.53
2024-03-10T09:15:00.000Z,5.27
2024-03-10T09:30:00.000Z,4.89
2024-03-10T09:45:00.000Z,2.68
2024-03-10T10:00:00.000Z,3.35
2024-03-10T10:15:00.000Z,1.58
2024-03-10T10:30:00.000Z,3.13
2024-03-10T10:45:00.000Z,1.29
2024-03-10T11:00:00.000Z,1.85
2024-03-10T11:15:00.000Z,1.76
2024-03-10T11:30:00.000Z,2.25
2024-03-10T11:45:00.000Z,1.31
2024-03-10T12:00:00.000Z,1.08
2024-03-10T12:15:00.000Z,1.01
2024-03-10T12:30:00.000Z,1.01
2024-03-10T12:45:00.000Z,1.04
2024-03-10T13:00:00.000Z,1.08
2024-03-10T13:15:00.000Z,1.11
2024-03-10T13:30:00.000Z,1.06
2024-03-10T13:45:00.000Z,1.04
2024-03-10T14:00:00.000Z,1.87
2024-03-10T14:15:00.000Z,1.07
2024-03-10T14:30:00.000Z,1.09
2024-03-10T14:45:00.000Z,2.42
2024-03-10T15:00:00.000Z,1.18
2024-03-10T15:15:00.000Z,1.06
2024-03-10T15:30:00.000Z,1.04
2024-03-10T15:45:00.000Z,1.11
2024-03-10T16:00:00.000Z,1.55
2024-03-10T16:15:00.000Z,1.16
2024-03-10T16:30:00.000Z,1.15
2024-03-10T16:45:00.000Z,1.25
2024-03-10T17:00:00.000Z,1.11
2024-03-10T17:15:00.000Z,3.76
2024-03-10T17:30:00.000Z,1.19
2024-03-10T17:45:00.000Z,1.09
2024-03-10T18:00:00.000Z,1.05
2024-03-10T18:15:00.000Z,1.18
2024-03-10T18:30:00.000Z,1.04
2024-03-10T18:45:00.000Z,1.07
2024-03-10T19:00:00.000Z,1.07
2024-03-10T19:15:00.000Z,1.39
2024-03-10T19:30:00.000Z,1.51
2024-03-10T19:45:00.000Z,1.51
2024-03-10T20:00:00.000Z,6.99
2024-03-10T20:15:00.000Z,5.4
2024-03-10T20:30:00.000Z,5.75
2024-03-10T20:45:00.000Z,6.22
2024-03-10T21:00:00.000Z,7.08
2024-03-10T21:15:00.000Z,7.09
2024-03-10T21:30:00.000Z,7.4
2024-03-10T21:45:00.000Z,7.72
2024-03-10T22:00:00.000Z,8.86
2024-03-10T22:15:00.000Z,7.4
2024-03-10T22:30:00.000Z,7.26
2024-03-10T22:45:00.000Z,6.16
2024-03-10T23:00:00.000Z,5.6
2024-03-10T23:15:00.000Z,5.45
2024-03-10T23:30:00.000Z,5.12
2024-03-10T23:45:00.000Z,3.58
